sensor_id;sensor_type;location;lat;lon;timestamp;pressure;altitude;pressure_sealevel;temperature;humidity
40982;BME280;26708;50.304;19.028;2023-02-22T00:01:45;98350.41;;;7.76;56.71
40982;BME280;26708;50.304;19.028;2023-02-22T00:03:52;98286.88;;;7.43;56.46
40982;BME280;26708;50.304;19.028;2023-02-22T00:06:00;98346.06;;;7.74;56.60
40982;BME280;26708;50.304;19.028;2023-02-22T00:08:07;98310.38;;;7.58;56.50
40982;BME280;26708;50.304;19.028;2023-02-22T00:10:23;98351.25;;;7.77;56.37
40982;BME280;26708;50.304;19.028;2023-02-22T00:12:31;98250.34;;;7.25;56.64
40982;BME280;26708;50.304;19.028;2023-02-22T00:14:37;98299.06;;;7.53;56.46
40982;BME280;26708;50.304;19.028;2023-02-22T00:16:42;98200.72;;;6.93;56.55
40982;BME280;26708;50.304;19.028;2023-02-22T00:18:50;98287.75;;;7.43;56.48
40982;BME280;26708;50.304;19.028;2023-02-22T00:20:58;98176.38;;;6.81;56.53
40982;BME280;26708;50.304;19.028;2023-02-22T00:23:05;98285.13;;;7.45;56.43
40982;BME280;26708;50.304;19.028;2023-02-22T00:25:15;98339.13;;;7.77;56.50
40982;BME280;26708;50.304;19.028;2023-02-22T00:27:25;98334.78;;;7.77;56.46
40982;BME280;26708;50.304;19.028;2023-02-22T00:29:30;98345.19;;;7.77;56.57
40982;BME280;26708;50.304;19.028;2023-02-22T00:31:36;98351.25;;;7.77;56.56
40982;BME280;26708;50.304;19.028;2023-02-22T00:33:42;98307.78;;;7.59;56.28
40982;BME280;26708;50.304;19.028;2023-02-22T00:35:47;98337.38;;;7.75;56.38
40982;BME280;26708;50.304;19.028;2023-02-22T00:37:54;98325.97;;;7.55;56.43
40982;BME280;26708;50.304;19.028;2023-02-22T00:40:00;98233.69;;;6.96;56.52
40982;BME280;26708;50.304;19.028;2023-02-22T00:42:08;98347.75;;;7.69;56.46
40982;BME280;26708;50.304;19.028;2023-02-22T00:44:16;98265.91;;;7.19;56.70
40982;BME280;26708;50.304;19.028;2023-02-22T00:46:20;98348.59;;;7.66;56.57
40982;BME280;26708;50.304;19.028;2023-02-22T00:48:27;98346.88;;;7.67;56.82
40982;BME280;26708;50.304;19.028;2023-02-22T00:50:33;98352.06;;;7.65;56.73
40982;BME280;26708;50.304;19.028;2023-02-22T00:52:39;98302.44;;;7.35;56.55
40982;BME280;26708;50.304;19.028;2023-02-22T00:54:43;98322.44;;;7.44;56.75
40982;BME280;26708;50.304;19.028;2023-02-22T00:56:48;98353.78;;;7.59;56.47
40982;BME280;26708;50.304;19.028;2023-02-22T00:58:53;98353.75;;;7.57;56.51
40982;BME280;26708;50.304;19.028;2023-02-22T01:01:00;98353.78;;;7.56;56.79
40982;BME280;26708;50.304;19.028;2023-02-22T01:03:07;98246.66;;;6.87;56.85
40982;BME280;26708;50.304;19.028;2023-02-22T01:05:13;98351.13;;;7.53;56.72
40982;BME280;26708;50.304;19.028;2023-02-22T01:07:18;98347.66;;;7.51;56.82
40982;BME280;26708;50.304;19.028;2023-02-22T01:09:23;98245.78;;;6.88;56.93
40982;BME280;26708;50.304;19.028;2023-02-22T01:11:28;98351.13;;;7.48;57.09
40982;BME280;26708;50.304;19.028;2023-02-22T01:13:33;98358.06;;;7.48;56.82
40982;BME280;26708;50.304;19.028;2023-02-22T01:15:42;98353.69;;;7.44;57.13
40982;BME280;26708;50.304;19.028;2023-02-22T01:17:51;98355.41;;;7.40;57.13
40982;BME280;26708;50.304;19.028;2023-02-22T01:19:56;98360.59;;;7.39;57.51
40982;BME280;26708;50.304;19.028;2023-02-22T01:22:02;98309.25;;;7.14;57.48
40982;BME280;26708;50.304;19.028;2023-02-22T01:24:07;98317.97;;;7.19;57.28
40982;BME280;26708;50.304;19.028;2023-02-22T01:26:16;98353.66;;;7.38;57.49
40982;BME280;26708;50.304;19.028;2023-02-22T01:28:22;98347.56;;;7.36;57.44
40982;BME280;26708;50.304;19.028;2023-02-22T01:30:29;98297.94;;;7.07;57.39
40982;BME280;26708;50.304;19.028;2023-02-22T01:32:37;98350.19;;;7.37;57.36
40982;BME280;26708;50.304;19.028;2023-02-22T01:34:46;98348.44;;;7.36;57.58
40982;BME280;26708;50.304;19.028;2023-02-22T01:36:51;98351.88;;;7.35;57.51
40982;BME280;26708;50.304;19.028;2023-02-22T01:38:56;98349.28;;;7.35;57.80
40982;BME280;26708;50.304;19.028;2023-02-22T01:41:04;98351.03;;;7.35;57.72
40982;BME280;26708;50.304;19.028;2023-02-22T01:43:19;98356.25;;;7.35;57.83
40982;BME280;26708;50.304;19.028;2023-02-22T01:45:49;98347.56;;;7.33;57.79
40982;BME280;26708;50.304;19.028;2023-02-22T01:48:03;98349.28;;;7.35;57.58
40982;BME280;26708;50.304;19.028;2023-02-22T01:50:13;98353.63;;;7.35;57.69
40982;BME280;26708;50.304;19.028;2023-02-22T01:52:20;98351.91;;;7.34;57.58
40982;BME280;26708;50.304;19.028;2023-02-22T01:54:29;98346.66;;;7.28;57.65
40982;BME280;26708;50.304;19.028;2023-02-22T01:56:41;98352.75;;;7.28;57.85
40982;BME280;26708;50.304;19.028;2023-02-22T01:58:59;98355.28;;;7.25;57.84
40982;BME280;26708;50.304;19.028;2023-02-22T02:01:08;98349.19;;;7.22;57.87
40982;BME280;26708;50.304;19.028;2023-02-22T02:03:17;98352.69;;;7.22;58.04
40982;BME280;26708;50.304;19.028;2023-02-22T02:05:36;98327.38;;;7.03;57.94
40982;BME280;26708;50.304;19.028;2023-02-22T02:07:44;98346.59;;;7.20;57.97
40982;BME280;26708;50.304;19.028;2023-02-22T02:09:55;98204.56;;;6.30;57.75
40982;BME280;26708;50.304;19.028;2023-02-22T02:12:06;98344.81;;;7.15;57.84
40982;BME280;26708;50.304;19.028;2023-02-22T02:14:13;98343.03;;;7.09;58.01
40982;BME280;26708;50.304;19.028;2023-02-22T02:16:18;98343.03;;;7.06;58.16
40982;BME280;26708;50.304;19.028;2023-02-22T02:18:26;98142.69;;;5.82;58.08
40982;BME280;26708;50.304;19.028;2023-02-22T02:20:43;98335.97;;;6.93;58.44
40982;BME280;26708;50.304;19.028;2023-02-22T02:23:06;98315.94;;;6.82;58.49
40982;BME280;26708;50.304;19.028;2023-02-22T02:25:57;98350.75;;;6.99;58.61
40982;BME280;26708;50.304;19.028;2023-02-22T02:28:48;98346.41;;;6.98;58.58
40982;BME280;26708;50.304;19.028;2023-02-22T02:34:31;98173.97;;;5.96;58.54
40982;BME280;26708;50.304;19.028;2023-02-22T02:36:50;98248.72;;;6.30;58.72
40982;BME280;26708;50.304;19.028;2023-02-22T02:39:15;98349.00;;;6.95;58.56
40982;BME280;26708;50.304;19.028;2023-02-22T02:41:35;98353.34;;;6.93;58.86
40982;BME280;26708;50.304;19.028;2023-02-22T02:43:52;98348.97;;;6.92;58.83
40982;BME280;26708;50.304;19.028;2023-02-22T02:46:06;98247.03;;;6.33;58.66
40982;BME280;26708;50.304;19.028;2023-02-22T02:48:24;98240.97;;;6.33;58.72
40982;BME280;26708;50.304;19.028;2023-02-22T02:50:38;98247.03;;;6.33;58.91
40982;BME280;26708;50.304;19.028;2023-02-22T02:52:48;98207.84;;;6.09;58.74
40982;BME280;26708;50.304;19.028;2023-02-22T02:55:04;98356.78;;;6.93;58.68
40982;BME280;26708;50.304;19.028;2023-02-22T02:57:12;98325.44;;;6.75;58.70
40982;BME280;26708;50.304;19.028;2023-02-22T02:59:26;98302.75;;;6.62;58.48
40982;BME280;26708;50.304;19.028;2023-02-22T03:01:47;98352.47;;;6.94;58.50
40982;BME280;26708;50.304;19.028;2023-02-22T03:04:24;98173.88;;;5.85;58.34
40982;BME280;26708;50.304;19.028;2023-02-22T03:09:55;98359.41;;;6.95;58.31
40982;BME280;26708;50.304;19.028;2023-02-22T03:12:31;98193.94;;;6.00;58.55
40982;BME280;26708;50.304;19.028;2023-02-22T03:14:52;98220.81;;;6.06;58.29
40982;BME280;26708;50.304;19.028;2023-02-22T03:17:16;98259.16;;;6.34;58.35
40982;BME280;26708;50.304;19.028;2023-02-22T03:19:35;98355.88;;;6.87;58.35
40982;BME280;26708;50.304;19.028;2023-02-22T03:21:54;98241.69;;;6.18;58.41
40982;BME280;26708;50.304;19.028;2023-02-22T03:24:14;98343.69;;;6.80;58.33
40982;BME280;26708;50.304;19.028;2023-02-22T03:26:30;98352.34;;;6.82;58.21
40982;BME280;26708;50.304;19.028;2023-02-22T03:28:46;98352.34;;;6.80;58.42
40982;BME280;26708;50.304;19.028;2023-02-22T03:30:58;98261.66;;;6.19;58.34
40982;BME280;26708;50.304;19.028;2023-02-22T03:33:10;98324.38;;;6.58;58.47
40982;BME280;26708;50.304;19.028;2023-02-22T03:35:28;98366.22;;;6.78;58.59
40982;BME280;26708;50.304;19.028;2023-02-22T03:37:40;98353.13;;;6.73;58.64
40982;BME280;26708;50.304;19.028;2023-02-22T03:39:52;98368.78;;;6.76;58.60
40982;BME280;26708;50.304;19.028;2023-02-22T03:42:05;98375.72;;;6.77;58.85
40982;BME280;26708;50.304;19.028;2023-02-22T03:44:19;98234.50;;;5.89;58.87
40982;BME280;26708;50.304;19.028;2023-02-22T03:46:29;98388.75;;;6.79;58.77
40982;BME280;26708;50.304;19.028;2023-02-22T03:48:41;98374.88;;;6.80;58.65
40982;BME280;26708;50.304;19.028;2023-02-22T03:51:00;98387.03;;;6.81;58.91
40982;BME280;26708;50.304;19.028;2023-02-22T03:53:06;98320.84;;;6.52;58.71
40982;BME280;26708;50.304;19.028;2023-02-22T03:55:15;98294.66;;;6.29;58.60
40982;BME280;26708;50.304;19.028;2023-02-22T03:57:27;98297.34;;;6.40;58.65
40982;BME280;26708;50.304;19.028;2023-02-22T03:59:39;98281.53;;;6.17;58.92
40982;BME280;26708;50.304;19.028;2023-02-22T04:01:44;98216.25;;;5.84;58.75
40982;BME280;26708;50.304;19.028;2023-02-22T04:03:52;98284.22;;;6.28;58.78
40982;BME280;26708;50.304;19.028;2023-02-22T04:05:59;98327.81;;;6.56;58.62
40982;BME280;26708;50.304;19.028;2023-02-22T04:08:04;98364.47;;;6.78;58.98
40982;BME280;26708;50.304;19.028;2023-02-22T04:10:10;98349.50;;;6.61;59.16
40982;BME280;26708;50.304;19.028;2023-02-22T04:12:16;98379.22;;;6.78;59.17
40982;BME280;26708;50.304;19.028;2023-02-22T04:14:35;98378.34;;;6.79;59.12
40982;BME280;26708;50.304;19.028;2023-02-22T04:16:41;98247.63;;;6.01;58.70
40982;BME280;26708;50.304;19.028;2023-02-22T04:18:46;98374.00;;;6.78;58.92
40982;BME280;26708;50.304;19.028;2023-02-22T04:20:53;98367.91;;;6.74;59.06
40982;BME280;26708;50.304;19.028;2023-02-22T04:23:15;98350.41;;;6.61;59.00
40982;BME280;26708;50.304;19.028;2023-02-22T04:25:20;98236.25;;;5.91;59.01
40982;BME280;26708;50.304;19.028;2023-02-22T04:27:26;98340.81;;;6.56;59.09
40982;BME280;26708;50.304;19.028;2023-02-22T04:29:33;98369.56;;;6.72;59.06
40982;BME280;26708;50.304;19.028;2023-02-22T04:31:41;98379.97;;;6.71;59.00
40982;BME280;26708;50.304;19.028;2023-02-22T04:33:46;98373.84;;;6.66;59.07
40982;BME280;26708;50.304;19.028;2023-02-22T04:35:55;98169.13;;;5.45;59.20
40982;BME280;26708;50.304;19.028;2023-02-22T04:38:01;98341.56;;;6.43;59.24
40982;BME280;26708;50.304;19.028;2023-02-22T04:40:09;98378.13;;;6.59;59.29
40982;BME280;26708;50.304;19.028;2023-02-22T04:42:15;98196.91;;;5.55;59.27
40982;BME280;26708;50.304;19.028;2023-02-22T04:44:20;98311.03;;;6.25;59.38
40982;BME280;26708;50.304;19.028;2023-02-22T04:46:24;98360.66;;;6.49;59.50
40982;BME280;26708;50.304;19.028;2023-02-22T04:48:45;98367.63;;;6.49;59.76
40982;BME280;26708;50.304;19.028;2023-02-22T04:50:54;98370.16;;;6.46;59.71
40982;BME280;26708;50.304;19.028;2023-02-22T04:52:59;98372.75;;;6.44;59.67
40982;BME280;26708;50.304;19.028;2023-02-22T04:55:05;98364.06;;;6.41;59.85
40982;BME280;26708;50.304;19.028;2023-02-22T04:57:13;98369.25;;;6.41;59.88
40982;BME280;26708;50.304;19.028;2023-02-22T04:59:18;98334.41;;;6.19;60.08
40982;BME280;26708;50.304;19.028;2023-02-22T05:01:30;98363.16;;;6.37;60.18
40982;BME280;26708;50.304;19.028;2023-02-22T05:03:36;98274.28;;;5.86;60.17
40982;BME280;26708;50.304;19.028;2023-02-22T05:05:41;98369.19;;;6.35;59.96
40982;BME280;26708;50.304;19.028;2023-02-22T05:07:47;98370.06;;;6.34;60.28
40982;BME280;26708;50.304;19.028;2023-02-22T05:09:52;98373.50;;;6.33;60.19
40982;BME280;26708;50.304;19.028;2023-02-22T05:11:57;98315.06;;;5.98;59.96
40982;BME280;26708;50.304;19.028;2023-02-22T05:14:05;98263.72;;;5.70;59.99
40982;BME280;26708;50.304;19.028;2023-02-22T05:16:09;98368.25;;;6.30;60.12
40982;BME280;26708;50.304;19.028;2023-02-22T05:18:14;98369.13;;;6.29;60.28
40982;BME280;26708;50.304;19.028;2023-02-22T05:20:24;98380.34;;;6.26;60.29
40982;BME280;26708;50.304;19.028;2023-02-22T05:22:31;98362.03;;;6.14;60.35
40982;BME280;26708;50.304;19.028;2023-02-22T05:24:36;98268.66;;;5.50;60.37
40982;BME280;26708;50.304;19.028;2023-02-22T05:26:42;98379.50;;;6.26;60.44
40982;BME280;26708;50.304;19.028;2023-02-22T05:28:47;98239.03;;;5.32;60.64
40982;BME280;26708;50.304;19.028;2023-02-22T05:30:55;98375.16;;;6.28;60.66
40982;BME280;26708;50.304;19.028;2023-02-22T05:33:01;98379.50;;;6.29;60.56
40982;BME280;26708;50.304;19.028;2023-02-22T05:35:06;98388.16;;;6.28;60.46
40982;BME280;26708;50.304;19.028;2023-02-22T05:37:11;98394.19;;;6.25;60.47
40982;BME280;26708;50.304;19.028;2023-02-22T05:39:16;98395.03;;;6.23;60.57
40982;BME280;26708;50.304;19.028;2023-02-22T05:41:21;98395.88;;;6.20;60.81
40982;BME280;26708;50.304;19.028;2023-02-22T05:43:26;98384.59;;;6.20;61.07
40982;BME280;26708;50.304;19.028;2023-02-22T05:45:31;98341.03;;;5.95;61.15
40982;BME280;26708;50.304;19.028;2023-02-22T05:47:39;98225.09;;;5.25;60.78
40982;BME280;26708;50.304;19.028;2023-02-22T05:49:43;98396.84;;;6.28;61.24
40982;BME280;26708;50.304;19.028;2023-02-22T05:51:48;98368.09;;;6.15;61.16
40982;BME280;26708;50.304;19.028;2023-02-22T05:53:53;98307.03;;;5.75;61.00
40982;BME280;26708;50.304;19.028;2023-02-22T05:55:58;98393.50;;;6.40;61.11
40982;BME280;26708;50.304;19.028;2023-02-22T05:58:03;98287.19;;;5.82;61.22
40982;BME280;26708;50.304;19.028;2023-02-22T06:00:13;98403.94;;;6.46;61.20
40982;BME280;26708;50.304;19.028;2023-02-22T06:02:23;98297.50;;;5.76;61.15
40982;BME280;26708;50.304;19.028;2023-02-22T06:04:31;98327.16;;;5.94;61.17
40982;BME280;26708;50.304;19.028;2023-02-22T06:06:35;98379.56;;;6.32;61.13
40982;BME280;26708;50.304;19.028;2023-02-22T06:08:40;98414.41;;;6.52;61.43
40982;BME280;26708;50.304;19.028;2023-02-22T06:10:45;98284.47;;;5.70;61.23
40982;BME280;26708;50.304;19.028;2023-02-22T06:12:50;98358.63;;;6.20;61.30
40982;BME280;26708;50.304;19.028;2023-02-22T06:14:56;98411.81;;;6.52;61.30
40982;BME280;26708;50.304;19.028;2023-02-22T06:17:02;98424.81;;;6.52;61.17
40982;BME280;26708;50.304;19.028;2023-02-22T06:19:06;98283.53;;;5.62;61.19
40982;BME280;26708;50.304;19.028;2023-02-22T06:21:14;98427.47;;;6.56;61.16
40982;BME280;26708;50.304;19.028;2023-02-22T06:23:19;98428.38;;;6.60;61.32
40982;BME280;26708;50.304;19.028;2023-02-22T06:25:25;98302.88;;;5.91;61.17
40982;BME280;26708;50.304;19.028;2023-02-22T06:27:32;98398.81;;;6.49;61.13
40982;BME280;26708;50.304;19.028;2023-02-22T06:29:38;98334.25;;;6.10;61.22
40982;BME280;26708;50.304;19.028;2023-02-22T06:31:42;98427.69;;;6.76;61.37
40982;BME280;26708;50.304;19.028;2023-02-22T06:33:47;98393.69;;;6.55;61.03
40982;BME280;26708;50.304;19.028;2023-02-22T06:35:52;98415.47;;;6.69;61.01
40982;BME280;26708;50.304;19.028;2023-02-22T06:37:59;98444.13;;;6.72;61.59
40982;BME280;26708;50.304;19.028;2023-02-22T06:40:04;98359.47;;;6.17;61.60
40982;BME280;26708;50.304;19.028;2023-02-22T06:42:12;98415.34;;;6.57;61.40
40982;BME280;26708;50.304;19.028;2023-02-22T06:44:16;98420.63;;;6.63;61.55
40982;BME280;26708;50.304;19.028;2023-02-22T06:46:21;98294.28;;;5.95;61.56
40982;BME280;26708;50.304;19.028;2023-02-22T06:48:26;98452.09;;;6.87;61.43
40982;BME280;26708;50.304;19.028;2023-02-22T06:50:31;98421.63;;;6.74;61.42
40982;BME280;26708;50.304;19.028;2023-02-22T06:52:35;98455.66;;;6.95;61.22
40982;BME280;26708;50.304;19.028;2023-02-22T06:54:49;98422.59;;;6.83;61.45
40982;BME280;26708;50.304;19.028;2023-02-22T06:56:54;98456.59;;;7.04;61.00
40982;BME280;26708;50.304;19.028;2023-02-22T06:58:59;98455.75;;;7.04;60.89
40982;BME280;26708;50.304;19.028;2023-02-22T07:01:05;98459.28;;;7.12;60.99
40982;BME280;26708;50.304;19.028;2023-02-22T07:03:10;98335.44;;;6.38;60.93
40982;BME280;26708;50.304;19.028;2023-02-22T07:05:17;98463.66;;;7.17;61.02
40982;BME280;26708;50.304;19.028;2023-02-22T07:07:24;98409.66;;;6.91;60.69
40982;BME280;26708;50.304;19.028;2023-02-22T07:09:30;98470.69;;;7.26;60.68
40982;BME280;26708;50.304;19.028;2023-02-22T07:11:39;98466.38;;;7.31;60.64
40982;BME280;26708;50.304;19.028;2023-02-22T07:13:44;98437.66;;;7.17;60.50
40982;BME280;26708;50.304;19.028;2023-02-22T07:15:49;98468.19;;;7.39;60.66
40982;BME280;26708;50.304;19.028;2023-02-22T07:17:54;98283.47;;;6.36;60.37
40982;BME280;26708;50.304;19.028;2023-02-22T07:20:00;98436.91;;;7.32;59.47
40982;BME280;26708;50.304;19.028;2023-02-22T07:22:05;98463.09;;;7.53;59.70
40982;BME280;26708;50.304;19.028;2023-02-22T07:24:09;98430.88;;;7.39;59.62
40982;BME280;26708;50.304;19.028;2023-02-22T07:26:15;98471.84;;;7.59;59.36
40982;BME280;26708;50.304;19.028;2023-02-22T07:28:22;98463.16;;;7.60;59.20
40982;BME280;26708;50.304;19.028;2023-02-22T07:30:28;98469.25;;;7.65;59.05
40982;BME280;26708;50.304;19.028;2023-02-22T07:32:35;98341.19;;;6.95;58.94
40982;BME280;26708;50.304;19.028;2023-02-22T07:34:40;98476.28;;;7.74;59.06
40982;BME280;26708;50.304;19.028;2023-02-22T07:36:45;98477.19;;;7.77;58.59
40982;BME280;26708;50.304;19.028;2023-02-22T07:38:50;98295.91;;;6.72;58.48
40982;BME280;26708;50.304;19.028;2023-02-22T07:40:55;98469.41;;;7.82;58.31
40982;BME280;26708;50.304;19.028;2023-02-22T07:43:02;98328.22;;;6.99;58.24
40982;BME280;26708;50.304;19.028;2023-02-22T07:45:12;98362.97;;;7.06;58.29
40982;BME280;26708;50.304;19.028;2023-02-22T07:47:18;98347.44;;;7.13;58.12
40982;BME280;26708;50.304;19.028;2023-02-22T07:49:23;98405.69;;;7.32;58.17
40982;BME280;26708;50.304;19.028;2023-02-22T07:51:28;98476.41;;;7.93;58.11
40982;BME280;26708;50.304;19.028;2023-02-22T07:53:32;98475.56;;;7.95;57.65
40982;BME280;26708;50.304;19.028;2023-02-22T07:55:37;98478.16;;;7.97;57.70
40982;BME280;26708;50.304;19.028;2023-02-22T07:57:44;98408.47;;;7.62;57.74
40982;BME280;26708;50.304;19.028;2023-02-22T07:59:49;98441.66;;;7.87;57.66
40982;BME280;26708;50.304;19.028;2023-02-22T08:01:56;98473.91;;;8.08;57.46
40982;BME280;26708;50.304;19.028;2023-02-22T08:04:01;98351.09;;;7.47;57.23
40982;BME280;26708;50.304;19.028;2023-02-22T08:06:06;98458.28;;;8.11;56.78
40982;BME280;26708;50.304;19.028;2023-02-22T08:08:11;98470.50;;;8.19;56.65
40982;BME280;26708;50.304;19.028;2023-02-22T08:10:21;98456.56;;;8.14;56.83
40982;BME280;26708;50.304;19.028;2023-02-22T08:12:26;98339.81;;;7.46;56.74
40982;BME280;26708;50.304;19.028;2023-02-22T08:14:31;98437.41;;;8.05;56.44
40982;BME280;26708;50.304;19.028;2023-02-22T08:16:36;98350.25;;;7.48;56.23
40982;BME280;26708;50.304;19.028;2023-02-22T08:18:43;98387.63;;;7.57;56.53
40982;BME280;26708;50.304;19.028;2023-02-22T08:20:50;98480.06;;;8.22;56.58
40982;BME280;26708;50.304;19.028;2023-02-22T08:22:57;98472.22;;;8.20;56.58
40982;BME280;26708;50.304;19.028;2023-02-22T08:25:02;98337.97;;;7.29;56.47
40982;BME280;26708;50.304;19.028;2023-02-22T08:27:07;98438.28;;;8.08;56.41
40982;BME280;26708;50.304;19.028;2023-02-22T08:29:15;98467.06;;;8.26;56.73
40982;BME280;26708;50.304;19.028;2023-02-22T08:31:19;98480.16;;;8.34;55.85
40982;BME280;26708;50.304;19.028;2023-02-22T08:33:24;98475.81;;;8.34;54.96
40982;BME280;26708;50.304;19.028;2023-02-22T08:35:32;98481.03;;;8.34;54.71
40982;BME280;26708;50.304;19.028;2023-02-22T08:37:40;98478.44;;;8.39;54.74
40982;BME280;26708;50.304;19.028;2023-02-22T08:39:45;98476.72;;;8.41;54.20
40982;BME280;26708;50.304;19.028;2023-02-22T08:41:50;98491.47;;;8.39;54.17
40982;BME280;26708;50.304;19.028;2023-02-22T08:43:55;98492.34;;;8.36;53.50
40982;BME280;26708;50.304;19.028;2023-02-22T08:46:02;98270.22;;;7.11;53.34
40982;BME280;26708;50.304;19.028;2023-02-22T08:48:08;98389.53;;;7.82;54.00
40982;BME280;26708;50.304;19.028;2023-02-22T08:50:16;98486.28;;;8.42;54.51
40982;BME280;26708;50.304;19.028;2023-02-22T08:52:25;98495.00;;;8.47;54.67
40982;BME280;26708;50.304;19.028;2023-02-22T08:54:31;98497.59;;;8.50;54.66
40982;BME280;26708;50.304;19.028;2023-02-22T08:56:35;98346.88;;;7.65;54.26
40982;BME280;26708;50.304;19.028;2023-02-22T08:58:40;98360.78;;;7.66;54.38
40982;BME280;26708;50.304;19.028;2023-02-22T09:00:45;98499.38;;;8.52;54.42
40982;BME280;26708;50.304;19.028;2023-02-22T09:02:51;98438.34;;;8.23;54.12
40982;BME280;26708;50.304;19.028;2023-02-22T09:04:55;98401.75;;;7.96;53.80
40982;BME280;26708;50.304;19.028;2023-02-22T09:07:01;98506.38;;;8.61;53.78
40982;BME280;26708;50.304;19.028;2023-02-22T09:09:09;98408.72;;;8.06;52.26
40982;BME280;26708;50.304;19.028;2023-02-22T09:11:13;98341.72;;;7.80;51.65
40982;BME280;26708;50.304;19.028;2023-02-22T09:13:19;98326.84;;;7.58;51.05
40982;BME280;26708;50.304;19.028;2023-02-22T09:15:25;98495.09;;;8.63;50.72
40982;BME280;26708;50.304;19.028;2023-02-22T09:17:30;98376.56;;;7.98;50.68
40982;BME280;26708;50.304;19.028;2023-02-22T09:19:38;98499.47;;;8.76;50.99
40982;BME280;26708;50.304;19.028;2023-02-22T09:21:42;98497.75;;;8.81;50.91
40982;BME280;26708;50.304;19.028;2023-02-22T09:23:47;98488.13;;;8.73;51.35
40982;BME280;26708;50.304;19.028;2023-02-22T09:25:58;98487.31;;;8.89;51.18
40982;BME280;26708;50.304;19.028;2023-02-22T09:28:04;98411.56;;;8.48;50.19
40982;BME280;26708;50.304;19.028;2023-02-22T09:30:15;98466.41;;;8.80;49.60
40982;BME280;26708;50.304;19.028;2023-02-22T09:32:25;98305.31;;;7.90;49.72
40982;BME280;26708;50.304;19.028;2023-02-22T09:34:30;98410.59;;;8.31;48.87
40982;BME280;26708;50.304;19.028;2023-02-22T09:36:35;98496.06;;;8.95;48.98
40982;BME280;26708;50.304;19.028;2023-02-22T09:38:40;98437.69;;;8.63;49.56
40982;BME280;26708;50.304;19.028;2023-02-22T09:40:49;98488.22;;;8.94;49.53
40982;BME280;26708;50.304;19.028;2023-02-22T09:43:14;98460.34;;;8.82;49.14
40982;BME280;26708;50.304;19.028;2023-02-22T09:45:33;98349.72;;;8.17;48.38
40982;BME280;26708;50.304;19.028;2023-02-22T09:47:43;98480.38;;;9.01;48.22
40982;BME280;26708;50.304;19.028;2023-02-22T09:49:59;98492.59;;;9.14;48.60
40982;BME280;26708;50.304;19.028;2023-02-22T09:52:23;98457.78;;;8.94;47.84
40982;BME280;26708;50.304;19.028;2023-02-22T09:54:37;98440.34;;;8.81;46.64
40982;BME280;26708;50.304;19.028;2023-02-22T09:56:45;98487.34;;;9.08;46.35
40982;BME280;26708;50.304;19.028;2023-02-22T09:59:01;98496.94;;;9.03;46.76
40982;BME280;26708;50.304;19.028;2023-02-22T10:01:21;98375.00;;;8.33;46.72
40982;BME280;26708;50.304;19.028;2023-02-22T10:03:35;98490.84;;;9.16;46.85
40982;BME280;26708;50.304;19.028;2023-02-22T10:05:55;98388.13;;;8.66;47.08
40982;BME280;26708;50.304;19.028;2023-02-22T10:08:10;98292.38;;;8.19;47.19
40982;BME280;26708;50.304;19.028;2023-02-22T10:10:21;98448.19;;;9.04;47.35
40982;BME280;26708;50.304;19.028;2023-02-22T10:12:33;98342.03;;;8.64;47.66
40982;BME280;26708;50.304;19.028;2023-02-22T10:17:35;98473.47;;;9.39;47.28
40982;BME280;26708;50.304;19.028;2023-02-22T10:19:55;98385.56;;;8.90;47.62
40982;BME280;26708;50.304;19.028;2023-02-22T10:22:31;98477.84;;;9.51;47.27
40982;BME280;26708;50.304;19.028;2023-02-22T10:24:56;98476.97;;;9.52;47.23
40982;BME280;26708;50.304;19.028;2023-02-22T10:27:14;98382.94;;;8.96;47.45
40982;BME280;26708;50.304;19.028;2023-02-22T10:29:30;98364.66;;;8.95;47.18
40982;BME280;26708;50.304;19.028;2023-02-22T10:31:49;98467.41;;;9.58;47.30
40982;BME280;26708;50.304;19.028;2023-02-22T10:34:01;98298.53;;;8.57;47.32
40982;BME280;26708;50.304;19.028;2023-02-22T10:36:16;98441.25;;;9.46;47.19
40982;BME280;26708;50.304;19.028;2023-02-22T10:38:26;98472.66;;;9.67;46.33
40982;BME280;26708;50.304;19.028;2023-02-22T10:40:37;98342.06;;;8.76;45.93
40982;BME280;26708;50.304;19.028;2023-02-22T10:42:42;98407.31;;;9.16;45.93
40982;BME280;26708;50.304;19.028;2023-02-22T10:44:48;98468.25;;;9.59;45.97
40982;BME280;26708;50.304;19.028;2023-02-22T10:46:58;98410.81;;;9.26;46.15
40982;BME280;26708;50.304;19.028;2023-02-22T10:49:05;98372.50;;;9.05;46.19
40982;BME280;26708;50.304;19.028;2023-02-22T10:51:11;98323.78;;;8.76;46.50
40982;BME280;26708;50.304;19.028;2023-02-22T10:53:16;98468.28;;;9.57;46.98
40982;BME280;26708;50.304;19.028;2023-02-22T10:55:21;98466.50;;;9.53;46.49
40982;BME280;26708;50.304;19.028;2023-02-22T10:57:31;98434.31;;;9.27;46.72
40982;BME280;26708;50.304;19.028;2023-02-22T10:59:40;98430.84;;;9.25;47.26
40982;BME280;26708;50.304;19.028;2023-02-22T11:01:45;98473.47;;;9.45;47.89
40982;BME280;26708;50.304;19.028;2023-02-22T11:04:05;98334.19;;;8.55;48.16
40982;BME280;26708;50.304;19.028;2023-02-22T11:06:18;98351.59;;;8.78;48.33
40982;BME280;26708;50.304;19.028;2023-02-22T11:08:26;98462.16;;;9.46;47.75
40982;BME280;26708;50.304;19.028;2023-02-22T11:10:33;98317.69;;;8.65;47.05
40982;BME280;26708;50.304;19.028;2023-02-22T11:12:40;98347.25;;;8.74;46.79
40982;BME280;26708;50.304;19.028;2023-02-22T11:14:48;98450.84;;;9.47;46.87
40982;BME280;26708;50.304;19.028;2023-02-22T11:16:55;98449.09;;;9.55;46.17
40982;BME280;26708;50.304;19.028;2023-02-22T11:19:20;98450.84;;;9.59;45.60
40982;BME280;26708;50.304;19.028;2023-02-22T11:21:30;98321.19;;;8.76;45.48
40982;BME280;26708;50.304;19.028;2023-02-22T11:23:38;98446.50;;;9.66;45.03
40982;BME280;26708;50.304;19.028;2023-02-22T11:25:47;98448.25;;;9.73;44.74
40982;BME280;26708;50.304;19.028;2023-02-22T11:28:08;98378.59;;;9.30;44.46
40982;BME280;26708;50.304;19.028;2023-02-22T11:30:26;98314.22;;;9.02;44.69
40982;BME280;26708;50.304;19.028;2023-02-22T11:32:32;98438.66;;;9.78;44.60
40982;BME280;26708;50.304;19.028;2023-02-22T11:34:41;98409.94;;;9.72;44.60